sensor_id;sensor_type;location;lat;lon;timestamp;P1;durP1;ratioP1;P2;durP2;ratioP2
3253;SDS011;1639;42.804;23.342;2023-10-09T00:00:53;8.70;;;3.17;;
3253;SDS011;1639;42.804;23.342;2023-10-09T00:03:26;7.57;;;3.73;;
3253;SDS011;1639;42.804;23.342;2023-10-09T00:05:53;5.77;;;3.03;;
3253;SDS011;1639;42.804;23.342;2023-10-09T00:08:19;6.80;;;2.63;;
3253;SDS011;1639;42.804;23.342;2023-10-09T00:10:51;6.57;;;3.10;;
3253;SDS011;1639;42.804;23.342;2023-10-09T00:13:21;5.90;;;2.60;;
3253;SDS011;1639;42.804;23.342;2023-10-09T00:15:58;6.50;;;2.80;;
3253;SDS011;1639;42.804;23.342;2023-10-09T00:18:33;8.40;;;3.53;;
3253;SDS011;1639;42.804;23.342;2023-10-09T00:21:00;10.30;;;3.50;;
3253;SDS011;1639;42.804;23.342;2023-10-09T00:23:27;8.67;;;3.50;;
3253;SDS011;1639;42.804;23.342;2023-10-09T00:25:53;5.53;;;2.70;;
3253;SDS011;1639;42.804;23.342;2023-10-09T00:28:34;5.10;;;2.20;;
3253;SDS011;1639;42.804;23.342;2023-10-09T00:31:02;7.93;;;2.83;;
3253;SDS011;1639;42.804;23.342;2023-10-09T00:33:33;6.93;;;2.20;;
3253;SDS011;1639;42.804;23.342;2023-10-09T00:36:01;6.57;;;2.63;;
3253;SDS011;1639;42.804;23.342;2023-10-09T00:38:38;17.03;;;3.07;;
3253;SDS011;1639;42.804;23.342;2023-10-09T00:41:13;5.10;;;2.30;;
3253;SDS011;1639;42.804;23.342;2023-10-09T00:43:45;5.73;;;2.27;;
3253;SDS011;1639;42.804;23.342;2023-10-09T00:46:10;6.07;;;2.97;;
3253;SDS011;1639;42.804;23.342;2023-10-09T00:48:45;6.10;;;2.97;;
3253;SDS011;1639;42.804;23.342;2023-10-09T00:51:15;9.60;;;2.77;;
3253;SDS011;1639;42.804;23.342;2023-10-09T00:53:44;5.50;;;2.70;;
3253;SDS011;1639;42.804;23.342;2023-10-09T00:56:32;6.03;;;2.43;;
3253;SDS011;1639;42.804;23.342;2023-10-09T00:59:08;5.20;;;2.13;;
3253;SDS011;1639;42.804;23.342;2023-10-09T01:01:39;8.80;;;2.33;;
3253;SDS011;1639;42.804;23.342;2023-10-09T01:04:10;5.60;;;2.20;;
3253;SDS011;1639;42.804;23.342;2023-10-09T01:06:41;6.97;;;2.57;;
3253;SDS011;1639;42.804;23.342;2023-10-09T01:09:13;6.07;;;2.10;;
3253;SDS011;1639;42.804;23.342;2023-10-09T01:11:42;9.90;;;2.17;;
3253;SDS011;1639;42.804;23.342;2023-10-09T01:14:29;5.37;;;2.50;;
3253;SDS011;1639;42.804;23.342;2023-10-09T01:16:56;8.10;;;2.70;;
3253;SDS011;1639;42.804;23.342;2023-10-09T01:19:23;5.60;;;2.37;;
3253;SDS011;1639;42.804;23.342;2023-10-09T01:21:52;6.97;;;2.80;;
3253;SDS011;1639;42.804;23.342;2023-10-09T01:24:18;10.83;;;2.43;;
3253;SDS011;1639;42.804;23.342;2023-10-09T01:26:48;5.43;;;2.23;;
3253;SDS011;1639;42.804;23.342;2023-10-09T01:34:31;5.97;;;2.27;;
3253;SDS011;1639;42.804;23.342;2023-10-09T01:37:11;5.70;;;2.33;;
3253;SDS011;1639;42.804;23.342;2023-10-09T01:39:53;5.37;;;2.27;;
3253;SDS011;1639;42.804;23.342;2023-10-09T01:42:45;5.53;;;1.80;;
3253;SDS011;1639;42.804;23.342;2023-10-09T01:45:14;5.00;;;1.90;;
3253;SDS011;1639;42.804;23.342;2023-10-09T01:47:45;9.83;;;2.53;;
3253;SDS011;1639;42.804;23.342;2023-10-09T01:50:16;5.20;;;1.90;;
3253;SDS011;1639;42.804;23.342;2023-10-09T01:52:47;5.70;;;2.37;;
3253;SDS011;1639;42.804;23.342;2023-10-09T01:55:12;5.00;;;2.10;;
3253;SDS011;1639;42.804;23.342;2023-10-09T01:57:53;5.93;;;1.77;;
3253;SDS011;1639;42.804;23.342;2023-10-09T02:00:19;5.13;;;1.90;;
3253;SDS011;1639;42.804;23.342;2023-10-09T02:02:49;7.80;;;3.10;;
3253;SDS011;1639;42.804;23.342;2023-10-09T02:05:15;5.30;;;1.90;;
3253;SDS011;1639;42.804;23.342;2023-10-09T02:07:41;4.83;;;2.13;;
3253;SDS011;1639;42.804;23.342;2023-10-09T02:10:16;5.53;;;2.13;;
3253;SDS011;1639;42.804;23.342;2023-10-09T02:13:02;5.10;;;2.00;;
3253;SDS011;1639;42.804;23.342;2023-10-09T02:15:32;6.10;;;2.07;;
3253;SDS011;1639;42.804;23.342;2023-10-09T02:18:08;5.83;;;2.03;;
3253;SDS011;1639;42.804;23.342;2023-10-09T02:23:37;5.47;;;1.70;;
3253;SDS011;1639;42.804;23.342;2023-10-09T02:26:06;5.20;;;1.73;;
3253;SDS011;1639;42.804;23.342;2023-10-09T02:28:33;5.97;;;1.83;;
3253;SDS011;1639;42.804;23.342;2023-10-09T02:31:00;6.20;;;1.90;;
3253;SDS011;1639;42.804;23.342;2023-10-09T02:33:27;5.20;;;2.07;;
3253;SDS011;1639;42.804;23.342;2023-10-09T02:35:53;5.00;;;1.90;;
3253;SDS011;1639;42.804;23.342;2023-10-09T02:38:20;4.80;;;1.53;;
3253;SDS011;1639;42.804;23.342;2023-10-09T02:40:51;4.70;;;1.33;;
3253;SDS011;1639;42.804;23.342;2023-10-09T02:43:29;7.00;;;2.40;;
3253;SDS011;1639;42.804;23.342;2023-10-09T02:46:05;5.17;;;1.97;;
3253;SDS011;1639;42.804;23.342;2023-10-09T02:48:39;5.10;;;1.97;;
3253;SDS011;1639;42.804;23.342;2023-10-09T02:51:08;5.73;;;2.00;;
3253;SDS011;1639;42.804;23.342;2023-10-09T02:53:40;4.90;;;1.67;;
3253;SDS011;1639;42.804;23.342;2023-10-09T02:56:05;5.70;;;2.17;;
3253;SDS011;1639;42.804;23.342;2023-10-09T02:58:42;7.00;;;2.23;;
3253;SDS011;1639;42.804;23.342;2023-10-09T03:01:11;5.73;;;2.20;;
3253;SDS011;1639;42.804;23.342;2023-10-09T03:03:39;6.70;;;1.80;;
3253;SDS011;1639;42.804;23.342;2023-10-09T03:06:10;5.93;;;1.63;;
3253;SDS011;1639;42.804;23.342;2023-10-09T03:08:36;5.47;;;1.70;;
3253;SDS011;1639;42.804;23.342;2023-10-09T03:11:02;5.20;;;1.60;;
3253;SDS011;1639;42.804;23.342;2023-10-09T03:13:31;5.60;;;2.03;;
3253;SDS011;1639;42.804;23.342;2023-10-09T03:15:58;5.00;;;1.90;;
3253;SDS011;1639;42.804;23.342;2023-10-09T03:18:23;4.73;;;1.43;;
3253;SDS011;1639;42.804;23.342;2023-10-09T03:20:49;5.63;;;1.90;;
3253;SDS011;1639;42.804;23.342;2023-10-09T03:23:15;5.20;;;1.97;;
3253;SDS011;1639;42.804;23.342;2023-10-09T03:25:41;7.03;;;1.50;;
3253;SDS011;1639;42.804;23.342;2023-10-09T03:28:10;6.80;;;1.77;;
3253;SDS011;1639;42.804;23.342;2023-10-09T03:30:36;6.17;;;2.03;;
3253;SDS011;1639;42.804;23.342;2023-10-09T03:33:05;5.10;;;2.03;;
3253;SDS011;1639;42.804;23.342;2023-10-09T03:35:31;4.80;;;1.50;;
3253;SDS011;1639;42.804;23.342;2023-10-09T03:37:59;6.20;;;2.30;;
3253;SDS011;1639;42.804;23.342;2023-10-09T03:40:37;11.13;;;2.10;;
3253;SDS011;1639;42.804;23.342;2023-10-09T03:43:07;7.53;;;1.90;;
3253;SDS011;1639;42.804;23.342;2023-10-09T03:45:35;4.93;;;1.77;;
3253;SDS011;1639;42.804;23.342;2023-10-09T03:48:03;5.07;;;1.80;;
3253;SDS011;1639;42.804;23.342;2023-10-09T03:50:41;5.40;;;1.50;;
3253;SDS011;1639;42.804;23.342;2023-10-09T03:53:08;4.90;;;1.60;;
3253;SDS011;1639;42.804;23.342;2023-10-09T03:55:37;7.07;;;2.20;;
3253;SDS011;1639;42.804;23.342;2023-10-09T03:58:06;5.97;;;1.70;;
3253;SDS011;1639;42.804;23.342;2023-10-09T04:00:32;4.67;;;1.47;;
3253;SDS011;1639;42.804;23.342;2023-10-09T04:03:09;5.50;;;1.90;;
3253;SDS011;1639;42.804;23.342;2023-10-09T04:05:36;5.10;;;1.70;;
3253;SDS011;1639;42.804;23.342;2023-10-09T04:08:02;5.50;;;2.23;;
3253;SDS011;1639;42.804;23.342;2023-10-09T04:10:37;4.87;;;1.53;;
3253;SDS011;1639;42.804;23.342;2023-10-09T04:13:11;4.73;;;1.60;;
3253;SDS011;1639;42.804;23.342;2023-10-09T04:15:40;4.77;;;1.47;;
3253;SDS011;1639;42.804;23.342;2023-10-09T04:18:07;5.17;;;1.70;;
3253;SDS011;1639;42.804;23.342;2023-10-09T04:20:40;4.83;;;1.60;;
3253;SDS011;1639;42.804;23.342;2023-10-09T04:23:24;5.10;;;1.80;;
3253;SDS011;1639;42.804;23.342;2023-10-09T04:26:01;4.90;;;1.70;;
3253;SDS011;1639;42.804;23.342;2023-10-09T04:28:35;6.47;;;1.80;;
3253;SDS011;1639;42.804;23.342;2023-10-09T04:31:02;6.33;;;2.17;;
3253;SDS011;1639;42.804;23.342;2023-10-09T04:33:31;4.80;;;1.30;;
3253;SDS011;1639;42.804;23.342;2023-10-09T04:36:03;5.97;;;1.53;;
3253;SDS011;1639;42.804;23.342;2023-10-09T04:38:54;4.80;;;1.43;;
3253;SDS011;1639;42.804;23.342;2023-10-09T04:41:29;6.57;;;2.00;;
3253;SDS011;1639;42.804;23.342;2023-10-09T04:44:07;5.20;;;1.60;;
3253;SDS011;1639;42.804;23.342;2023-10-09T04:46:48;4.80;;;1.40;;
3253;SDS011;1639;42.804;23.342;2023-10-09T04:49:33;5.83;;;2.10;;
3253;SDS011;1639;42.804;23.342;2023-10-09T04:52:18;4.87;;;1.60;;
3253;SDS011;1639;42.804;23.342;2023-10-09T04:54:50;5.83;;;1.90;;
3253;SDS011;1639;42.804;23.342;2023-10-09T04:57:40;6.30;;;1.87;;
3253;SDS011;1639;42.804;23.342;2023-10-09T05:00:17;5.10;;;1.70;;
3253;SDS011;1639;42.804;23.342;2023-10-09T05:02:52;6.60;;;1.90;;
3253;SDS011;1639;42.804;23.342;2023-10-09T05:05:30;4.90;;;1.67;;
3253;SDS011;1639;42.804;23.342;2023-10-09T05:08:14;8.90;;;2.47;;
3253;SDS011;1639;42.804;23.342;2023-10-09T05:10:44;11.00;;;2.77;;
3253;SDS011;1639;42.804;23.342;2023-10-09T05:13:31;4.83;;;1.70;;
3253;SDS011;1639;42.804;23.342;2023-10-09T05:16:10;6.50;;;2.60;;
3253;SDS011;1639;42.804;23.342;2023-10-09T05:18:58;5.40;;;1.90;;
3253;SDS011;1639;42.804;23.342;2023-10-09T05:21:52;4.80;;;1.63;;
3253;SDS011;1639;42.804;23.342;2023-10-09T05:24:18;5.07;;;1.73;;
3253;SDS011;1639;42.804;23.342;2023-10-09T05:29:16;11.60;;;1.67;;
3253;SDS011;1639;42.804;23.342;2023-10-09T05:31:58;5.00;;;1.60;;
3253;SDS011;1639;42.804;23.342;2023-10-09T05:34:34;5.03;;;1.63;;
3253;SDS011;1639;42.804;23.342;2023-10-09T05:37:04;4.80;;;1.50;;
3253;SDS011;1639;42.804;23.342;2023-10-09T05:39:51;7.73;;;2.00;;
3253;SDS011;1639;42.804;23.342;2023-10-09T05:42:30;4.70;;;1.60;;
3253;SDS011;1639;42.804;23.342;2023-10-09T05:45:03;4.80;;;1.30;;
3253;SDS011;1639;42.804;23.342;2023-10-09T05:47:48;4.63;;;1.40;;
3253;SDS011;1639;42.804;23.342;2023-10-09T05:50:22;6.17;;;1.50;;
3253;SDS011;1639;42.804;23.342;2023-10-09T05:52:48;7.13;;;2.23;;
3253;SDS011;1639;42.804;23.342;2023-10-09T05:55:17;5.03;;;1.60;;
3253;SDS011;1639;42.804;23.342;2023-10-09T05:57:49;6.00;;;2.10;;
3253;SDS011;1639;42.804;23.342;2023-10-09T06:00:33;5.57;;;2.20;;
3253;SDS011;1639;42.804;23.342;2023-10-09T06:03:17;5.17;;;1.60;;
3253;SDS011;1639;42.804;23.342;2023-10-09T06:06:03;4.63;;;1.30;;
3253;SDS011;1639;42.804;23.342;2023-10-09T06:08:30;5.30;;;2.17;;
3253;SDS011;1639;42.804;23.342;2023-10-09T06:11:08;5.30;;;1.93;;
3253;SDS011;1639;42.804;23.342;2023-10-09T06:13:53;4.63;;;1.40;;
3253;SDS011;1639;42.804;23.342;2023-10-09T06:16:48;4.90;;;2.03;;
3253;SDS011;1639;42.804;23.342;2023-10-09T06:19:23;4.80;;;1.57;;
3253;SDS011;1639;42.804;23.342;2023-10-09T06:21:56;5.00;;;1.57;;
3253;SDS011;1639;42.804;23.342;2023-10-09T06:24:29;9.23;;;2.20;;
3253;SDS011;1639;42.804;23.342;2023-10-09T06:26:59;5.60;;;1.70;;
3253;SDS011;1639;42.804;23.342;2023-10-09T06:29:28;4.60;;;1.33;;
3253;SDS011;1639;42.804;23.342;2023-10-09T06:32:04;4.93;;;1.57;;
3253;SDS011;1639;42.804;23.342;2023-10-09T06:34:54;4.73;;;1.60;;
3253;SDS011;1639;42.804;23.342;2023-10-09T06:37:39;4.80;;;1.60;;
3253;SDS011;1639;42.804;23.342;2023-10-09T06:40:25;6.20;;;1.93;;
3253;SDS011;1639;42.804;23.342;2023-10-09T06:43:09;4.70;;;1.50;;
3253;SDS011;1639;42.804;23.342;2023-10-09T06:45:52;4.90;;;1.83;;
3253;SDS011;1639;42.804;23.342;2023-10-09T06:48:40;4.60;;;1.30;;
3253;SDS011;1639;42.804;23.342;2023-10-09T06:51:10;4.90;;;1.60;;
3253;SDS011;1639;42.804;23.342;2023-10-09T06:54:02;5.80;;;2.17;;
3253;SDS011;1639;42.804;23.342;2023-10-09T06:56:43;4.70;;;1.57;;
3253;SDS011;1639;42.804;23.342;2023-10-09T06:59:34;5.10;;;1.50;;
3253;SDS011;1639;42.804;23.342;2023-10-09T07:02:19;5.67;;;1.70;;
3253;SDS011;1639;42.804;23.342;2023-10-09T07:04:51;4.77;;;1.57;;
3253;SDS011;1639;42.804;23.342;2023-10-09T07:07:19;10.00;;;1.97;;
3253;SDS011;1639;42.804;23.342;2023-10-09T07:09:49;4.80;;;1.53;;
3253;SDS011;1639;42.804;23.342;2023-10-09T07:12:34;4.60;;;1.40;;
3253;SDS011;1639;42.804;23.342;2023-10-09T07:15:07;4.80;;;1.40;;
3253;SDS011;1639;42.804;23.342;2023-10-09T07:17:33;5.00;;;1.90;;
3253;SDS011;1639;42.804;23.342;2023-10-09T07:19:59;5.20;;;2.17;;
3253;SDS011;1639;42.804;23.342;2023-10-09T07:22:37;5.00;;;1.57;;
3253;SDS011;1639;42.804;23.342;2023-10-09T07:25:18;4.70;;;1.60;;
3253;SDS011;1639;42.804;23.342;2023-10-09T07:28:06;4.90;;;1.83;;
3253;SDS011;1639;42.804;23.342;2023-10-09T07:30:55;13.30;;;1.53;;
3253;SDS011;1639;42.804;23.342;2023-10-09T07:33:24;5.40;;;1.40;;
3253;SDS011;1639;42.804;23.342;2023-10-09T07:35:56;5.77;;;1.77;;
3253;SDS011;1639;42.804;23.342;2023-10-09T07:38:31;4.70;;;1.60;;
3253;SDS011;1639;42.804;23.342;2023-10-09T07:41:03;5.77;;;1.73;;
3253;SDS011;1639;42.804;23.342;2023-10-09T07:43:32;5.30;;;1.70;;
3253;SDS011;1639;42.804;23.342;2023-10-09T07:46:28;6.37;;;1.70;;
3253;SDS011;1639;42.804;23.342;2023-10-09T07:49:17;4.80;;;1.57;;
3253;SDS011;1639;42.804;23.342;2023-10-09T07:51:49;5.33;;;1.70;;
3253;SDS011;1639;42.804;23.342;2023-10-09T07:54:17;5.17;;;1.90;;
3253;SDS011;1639;42.804;23.342;2023-10-09T07:56:58;4.80;;;1.87;;
3253;SDS011;1639;42.804;23.342;2023-10-09T07:59:56;4.77;;;1.90;;
3253;SDS011;1639;42.804;23.342;2023-10-09T08:02:36;4.70;;;1.70;;
3253;SDS011;1639;42.804;23.342;2023-10-09T08:05:03;4.57;;;1.40;;
3253;SDS011;1639;42.804;23.342;2023-10-09T08:07:44;7.70;;;2.03;;
3253;SDS011;1639;42.804;23.342;2023-10-09T08:10:19;5.23;;;1.83;;
3253;SDS011;1639;42.804;23.342;2023-10-09T08:12:45;4.47;;;1.27;;
3253;SDS011;1639;42.804;23.342;2023-10-09T08:15:14;4.50;;;1.40;;
3253;SDS011;1639;42.804;23.342;2023-10-09T08:20:38;4.80;;;1.83;;
3253;SDS011;1639;42.804;23.342;2023-10-09T08:23:27;4.63;;;1.37;;
3253;SDS011;1639;42.804;23.342;2023-10-09T08:26:07;4.30;;;1.33;;
3253;SDS011;1639;42.804;23.342;2023-10-09T08:28:44;5.57;;;1.77;;
3253;SDS011;1639;42.804;23.342;2023-10-09T08:31:14;5.33;;;1.83;;
3253;SDS011;1639;42.804;23.342;2023-10-09T08:33:47;6.07;;;1.90;;
3253;SDS011;1639;42.804;23.342;2023-10-09T08:36:34;4.67;;;1.57;;
3253;SDS011;1639;42.804;23.342;2023-10-09T08:39:03;4.90;;;1.63;;
3253;SDS011;1639;42.804;23.342;2023-10-09T08:41:50;4.43;;;1.60;;
3253;SDS011;1639;42.804;23.342;2023-10-09T08:44:17;8.33;;;2.30;;
3253;SDS011;1639;42.804;23.342;2023-10-09T08:46:47;4.67;;;1.43;;
3253;SDS011;1639;42.804;23.342;2023-10-09T08:49:15;4.60;;;1.70;;
3253;SDS011;1639;42.804;23.342;2023-10-09T08:51:41;4.70;;;1.70;;
3253;SDS011;1639;42.804;23.342;2023-10-09T08:54:07;4.90;;;1.50;;
3253;SDS011;1639;42.804;23.342;2023-10-09T08:56:36;4.70;;;1.60;;
3253;SDS011;1639;42.804;23.342;2023-10-09T08:59:04;4.37;;;1.20;;
3253;SDS011;1639;42.804;23.342;2023-10-09T09:01:30;5.00;;;1.93;;
3253;SDS011;1639;42.804;23.342;2023-10-09T09:03:57;4.47;;;1.40;;
3253;SDS011;1639;42.804;23.342;2023-10-09T09:06:25;4.60;;;1.73;;
3253;SDS011;1639;42.804;23.342;2023-10-09T09:08:51;5.83;;;1.83;;
3253;SDS011;1639;42.804;23.342;2023-10-09T09:11:24;4.73;;;1.70;;
3253;SDS011;1639;42.804;23.342;2023-10-09T09:18:49;6.83;;;1.73;;
3253;SDS011;1639;42.804;23.342;2023-10-09T09:21:43;5.73;;;1.70;;
3253;SDS011;1639;42.804;23.342;2023-10-09T09:24:14;5.47;;;1.50;;
3253;SDS011;1639;42.804;23.342;2023-10-09T09:26:39;4.30;;;1.20;;
3253;SDS011;1639;42.804;23.342;2023-10-09T09:29:14;4.60;;;1.70;;
3253;SDS011;1639;42.804;23.342;2023-10-09T09:31:53;4.93;;;1.70;;
3253;SDS011;1639;42.804;23.342;2023-10-09T09:34:20;4.70;;;1.60;;
3253;SDS011;1639;42.804;23.342;2023-10-09T09:36:54;5.00;;;1.80;;
3253;SDS011;1639;42.804;23.342;2023-10-09T09:39:21;5.60;;;2.43;;
3253;SDS011;1639;42.804;23.342;2023-10-09T09:41:55;5.00;;;1.80;;
3253;SDS011;1639;42.804;23.342;2023-10-09T09:44:32;5.17;;;1.70;;
3253;SDS011;1639;42.804;23.342;2023-10-09T09:47:08;4.80;;;1.60;;
3253;SDS011;1639;42.804;23.342;2023-10-09T09:49:37;4.93;;;1.60;;
3253;SDS011;1639;42.804;23.342;2023-10-09T09:52:06;4.77;;;1.63;;
3253;SDS011;1639;42.804;23.342;2023-10-09T09:54:35;6.90;;;1.77;;
3253;SDS011;1639;42.804;23.342;2023-10-09T09:57:04;5.00;;;1.73;;
3253;SDS011;1639;42.804;23.342;2023-10-09T09:59:36;4.50;;;1.40;;
3253;SDS011;1639;42.804;23.342;2023-10-09T10:02:05;13.50;;;2.10;;
3253;SDS011;1639;42.804;23.342;2023-10-09T10:04:32;5.57;;;1.60;;
3253;SDS011;1639;42.804;23.342;2023-10-09T10:07:02;4.60;;;1.90;;
3253;SDS011;1639;42.804;23.342;2023-10-09T10:09:37;4.70;;;1.50;;
3253;SDS011;1639;42.804;23.342;2023-10-09T10:12:04;4.47;;;1.60;;
3253;SDS011;1639;42.804;23.342;2023-10-09T10:20:24;9.17;;;2.17;;
3253;SDS011;1639;42.804;23.342;2023-10-09T10:22:49;5.10;;;1.87;;
3253;SDS011;1639;42.804;23.342;2023-10-09T10:28:16;4.60;;;1.63;;
3253;SDS011;1639;42.804;23.342;2023-10-09T10:30:53;5.90;;;1.80;;
3253;SDS011;1639;42.804;23.342;2023-10-09T10:33:20;4.37;;;1.50;;
3253;SDS011;1639;42.804;23.342;2023-10-09T10:35:47;4.60;;;1.73;;
3253;SDS011;1639;42.804;23.342;2023-10-09T10:38:27;5.57;;;2.00;;
3253;SDS011;1639;42.804;23.342;2023-10-09T10:41:08;4.77;;;1.90;;
3253;SDS011;1639;42.804;23.342;2023-10-09T10:43:39;5.00;;;1.60;;
3253;SDS011;1639;42.804;23.342;2023-10-09T10:46:17;6.40;;;1.50;;
3253;SDS011;1639;42.804;23.342;2023-10-09T10:49:03;6.07;;;1.60;;
3253;SDS011;1639;42.804;23.342;2023-10-09T10:51:40;4.37;;;1.40;;
3253;SDS011;1639;42.804;23.342;2023-10-09T10:54:12;5.33;;;1.90;;
3253;SDS011;1639;42.804;23.342;2023-10-09T10:57:17;4.30;;;1.30;;
3253;SDS011;1639;42.804;23.342;2023-10-09T10:59:55;4.40;;;1.43;;
3253;SDS011;1639;42.804;23.342;2023-10-09T11:02:38;4.27;;;1.30;;
3253;SDS011;1639;42.804;23.342;2023-10-09T11:05:06;5.10;;;1.90;;
3253;SDS011;1639;42.804;23.342;2023-10-09T11:07:49;4.20;;;1.20;;
3253;SDS011;1639;42.804;23.342;2023-10-09T11:10:21;5.67;;;2.03;;
3253;SDS011;1639;42.804;23.342;2023-10-09T11:12:52;5.03;;;1.90;;
3253;SDS011;1639;42.804;23.342;2023-10-09T11:15:30;4.97;;;1.67;;
3253;SDS011;1639;42.804;23.342;2023-10-09T11:18:09;4.40;;;1.50;;
3253;SDS011;1639;42.804;23.342;2023-10-09T11:20:45;4.37;;;1.60;;
3253;SDS011;1639;42.804;23.342;2023-10-09T11:23:40;4.30;;;1.47;;
3253;SDS011;1639;42.804;23.342;2023-10-09T11:26:27;5.13;;;1.80;;
3253;SDS011;1639;42.804;23.342;2023-10-09T11:29:08;4.50;;;1.50;;
3253;SDS011;1639;42.804;23.342;2023-10-09T11:32:02;4.40;;;1.50;;
3253;SDS011;1639;42.804;23.342;2023-10-09T11:34:32;6.97;;;2.10;;
3253;SDS011;1639;42.804;23.342;2023-10-09T11:37:22;4.70;;;2.17;;
3253;SDS011;1639;42.804;23.342;2023-10-09T11:39:55;4.63;;;1.83;;
3253;SDS011;1639;42.804;23.342;2023-10-09T11:42:26;5.63;;;1.83;;
3253;SDS011;1639;42.804;23.342;2023-10-09T11:45:07;6.00;;;2.10;;
3253;SDS011;1639;42.804;23.342;2023-10-09T11:47:53;4.70;;;1.80;;
3253;SDS011;1639;42.804;23.342;2023-10-09T11:50:38;5.37;;;1.87;;
3253;SDS011;1639;42.804;23.342;2023-10-09T11:53:08;4.70;;;1.97;;
3253;SDS011;1639;42.804;23.342;2023-10-09T11:55:37;5.37;;;1.80;;
3253;SDS011;1639;42.804;23.342;2023-10-09T11:58:03;4.60;;;1.80;;
3253;SDS011;1639;42.804;23.342;2023-10-09T12:00:30;4.50;;;1.53;;
3253;SDS011;1639;42.804;23.342;2023-10-09T12:03:07;4.57;;;1.73;;
3253;SDS011;1639;42.804;23.342;2023-10-09T12:05:33;4.43;;;1.90;;
3253;SDS011;1639;42.804;23.342;2023-10-09T12:07:58;4.50;;;1.50;;
3253;SDS011;1639;42.804;23.342;2023-10-09T12:10:26;5.73;;;1.87;;
3253;SDS011;1639;42.804;23.342;2023-10-09T12:12:52;4.60;;;1.77;;
3253;SDS011;1639;42.804;23.342;2023-10-09T12:15:19;4.60;;;1.80;;
3253;SDS011;1639;42.804;23.342;2023-10-09T12:17:46;4.90;;;1.53;;
3253;SDS011;1639;42.804;23.342;2023-10-09T12:20:15;4.90;;;1.83;;
3253;SDS011;1639;42.804;23.342;2023-10-09T12:23:00;6.20;;;2.37;;
3253;SDS011;1639;42.804;23.342;2023-10-09T12:25:30;4.93;;;1.67;;
3253;SDS011;1639;42.804;23.342;2023-10-09T12:27:57;4.97;;;1.70;;
3253;SDS011;1639;42.804;23.342;2023-10-09T12:30:26;4.70;;;1.93;;
3253;SDS011;1639;42.804;23.342;2023-10-09T12:32:55;4.60;;;1.90;;
3253;SDS011;1639;42.804;23.342;2023-10-09T12:35:22;4.63;;;1.80;;
3253;SDS011;1639;42.804;23.342;2023-10-09T12:37:50;4.60;;;1.80;;
3253;SDS011;1639;42.804;23.342;2023-10-09T12:40:23;4.50;;;1.70;;
3253;SDS011;1639;42.804;23.342;2023-10-09T12:42:56;4.63;;;2.03;;
3253;SDS011;1639;42.804;23.342;2023-10-09T12:45:24;5.30;;;2.10;;
3253;SDS011;1639;42.804;23.342;2023-10-09T12:47:54;4.73;;;1.67;;
3253;SDS011;1639;42.804;23.342;2023-10-09T12:50:27;12.70;;;2.17;;
3253;SDS011;1639;42.804;23.342;2023-10-09T12:52:56;4.80;;;2.10;;
3253;SDS011;1639;42.804;23.342;2023-10-09T12:55:26;4.37;;;1.60;;
3253;SDS011;1639;42.804;23.342;2023-10-09T12:57:57;4.70;;;1.70;;
3253;SDS011;1639;42.804;23.342;2023-10-09T13:00:26;5.13;;;1.80;;
3253;SDS011;1639;42.804;23.342;2023-10-09T13:02:51;4.73;;;2.17;;
3253;SDS011;1639;42.804;23.342;2023-10-09T13:05:17;5.30;;;1.93;;
3253;SDS011;1639;42.804;23.342;2023-10-09T13:07:51;4.97;;;2.20;;
3253;SDS011;1639;42.804;23.342;2023-10-09T13:10:18;4.40;;;1.70;;
3253;SDS011;1639;42.804;23.342;2023-10-09T13:12:44;9.63;;;2.00;;
3253;SDS011;1639;42.804;23.342;2023-10-09T13:15:10;4.90;;;2.10;;
3253;SDS011;1639;42.804;23.342;2023-10-09T13:17:36;4.70;;;1.80;;
3253;SDS011;1639;42.804;23.342;2023-10-09T13:20:03;5.07;;;1.73;;
3253;SDS011;1639;42.804;23.342;2023-10-09T13:22:37;4.60;;;1.97;;
3253;SDS011;1639;42.804;23.342;2023-10-09T13:25:09;5.30;;;2.03;;
3253;SDS011;1639;42.804;23.342;2023-10-09T13:27:49;4.70;;;1.70;;
3253;SDS011;1639;42.804;23.342;2023-10-09T13:30:18;4.80;;;1.67;;
3253;SDS011;1639;42.804;23.342;2023-10-09T13:32:49;7.07;;;2.10;;
3253;SDS011;1639;42.804;23.342;2023-10-09T13:35:18;4.40;;;1.80;;
3253;SDS011;1639;42.804;23.342;2023-10-09T13:37:45;5.10;;;2.20;;
3253;SDS011;1639;42.804;23.342;2023-10-09T13:40:19;5.37;;;2.13;;
3253;SDS011;1639;42.804;23.342;2023-10-09T13:42:54;6.23;;;2.03;;
3253;SDS011;1639;42.804;23.342;2023-10-09T13:45:24;4.40;;;1.60;;
3253;SDS011;1639;42.804;23.342;2023-10-09T13:47:52;7.70;;;3.20;;
3253;SDS011;1639;42.804;23.342;2023-10-09T13:50:28;5.67;;;2.10;;
3253;SDS011;1639;42.804;23.342;2023-10-09T13:52:57;6.70;;;2.30;;
3253;SDS011;1639;42.804;23.342;2023-10-09T13:55:22;5.67;;;2.07;;
3253;SDS011;1639;42.804;23.342;2023-10-09T13:57:55;6.60;;;2.00;;
3253;SDS011;1639;42.804;23.342;2023-10-09T14:00:22;4.80;;;1.70;;
3253;SDS011;1639;42.804;23.342;2023-10-09T14:03:07;4.83;;;2.20;;
3253;SDS011;1639;42.804;23.342;2023-10-09T14:05:39;5.93;;;2.40;;
3253;SDS011;1639;42.804;23.342;2023-10-09T14:08:19;5.20;;;2.03;;
3253;SDS011;1639;42.804;23.342;2023-10-09T14:10:49;6.10;;;2.50;;
3253;SDS011;1639;42.804;23.342;2023-10-09T14:13:15;4.70;;;1.90;;
3253;SDS011;1639;42.804;23.342;2023-10-09T14:15:41;5.50;;;2.33;;
3253;SDS011;1639;42.804;23.342;2023-10-09T14:18:08;4.40;;;1.80;;
3253;SDS011;1639;42.804;23.342;2023-10-09T14:20:36;5.67;;;2.03;;
3253;SDS011;1639;42.804;23.342;2023-10-09T14:23:02;5.40;;;2.03;;
3253;SDS011;1639;42.804;23.342;2023-10-09T14:25:34;6.10;;;2.47;;
3253;SDS011;1639;42.804;23.342;2023-10-09T14:28:08;7.13;;;2.87;;
3253;SDS011;1639;42.804;23.342;2023-10-09T14:30:37;5.80;;;2.60;;
3253;SDS011;1639;42.804;23.342;2023-10-09T14:33:12;6.13;;;2.17;;
3253;SDS011;1639;42.804;23.342;2023-10-09T14:35:41;9.03;;;3.60;;
3253;SDS011;1639;42.804;23.342;2023-10-09T14:38:09;7.77;;;2.10;;
3253;SDS011;1639;42.804;23.342;2023-10-09T14:40:46;4.60;;;2.20;;
3253;SDS011;1639;42.804;23.342;2023-10-09T14:43:13;4.83;;;2.00;;
3253;SDS011;1639;42.804;23.342;2023-10-09T14:45:48;4.77;;;2.40;;
3253;SDS011;1639;42.804;23.342;2023-10-09T14:48:17;5.53;;;2.53;;
3253;SDS011;1639;42.804;23.342;2023-10-09T14:50:52;4.53;;;1.97;;
3253;SDS011;1639;42.804;23.342;2023-10-09T14:53:18;5.10;;;2.07;;
3253;SDS011;1639;42.804;23.342;2023-10-09T14:55:55;5.67;;;2.10;;
3253;SDS011;1639;42.804;23.342;2023-10-09T14:58:21;4.93;;;1.70;;
3253;SDS011;1639;42.804;23.342;2023-10-09T15:00:49;7.60;;;2.67;;
3253;SDS011;1639;42.804;23.342;2023-10-09T15:03:16;6.50;;;2.07;;
3253;SDS011;1639;42.804;23.342;2023-10-09T15:05:45;5.77;;;2.50;;
3253;SDS011;1639;42.804;23.342;2023-10-09T15:08:11;7.30;;;2.60;;
3253;SDS011;1639;42.804;23.342;2023-10-09T15:10:43;7.37;;;2.10;;
3253;SDS011;1639;42.804;23.342;2023-10-09T15:13:13;4.90;;;1.80;;
3253;SDS011;1639;42.804;23.342;2023-10-09T15:15:41;5.27;;;2.30;;
3253;SDS011;1639;42.804;23.342;2023-10-09T15:18:07;6.17;;;3.70;;
3253;SDS011;1639;42.804;23.342;2023-10-09T15:20:34;6.93;;;2.60;;
3253;SDS011;1639;42.804;23.342;2023-10-09T15:23:00;6.90;;;2.33;;
3253;SDS011;1639;42.804;23.342;2023-10-09T15:25:26;4.80;;;2.23;;
3253;SDS011;1639;42.804;23.342;2023-10-09T15:27:52;6.50;;;2.47;;
3253;SDS011;1639;42.804;23.342;2023-10-09T15:30:17;7.87;;;3.07;;
3253;SDS011;1639;42.804;23.342;2023-10-09T15:32:43;5.83;;;2.77;;
3253;SDS011;1639;42.804;23.342;2023-10-09T15:35:11;6.63;;;2.57;;
3253;SDS011;1639;42.804;23.342;2023-10-09T15:37:37;8.73;;;3.10;;
3253;SDS011;1639;42.804;23.342;2023-10-09T15:40:04;9.73;;;3.00;;
3253;SDS011;1639;42.804;23.342;2023-10-09T15:42:30;7.60;;;2.90;;
3253;SDS011;1639;42.804;23.342;2023-10-09T15:44:56;7.00;;;3.47;;
3253;SDS011;1639;42.804;23.342;2023-10-09T15:47:21;5.63;;;2.70;;
3253;SDS011;1639;42.804;23.342;2023-10-09T15:49:47;6.97;;;3.00;;
3253;SDS011;1639;42.804;23.342;2023-10-09T15:52:12;6.00;;;2.70;;
3253;SDS011;1639;42.804;23.342;2023-10-09T15:54:42;5.83;;;3.17;;
3253;SDS011;1639;42.804;23.342;2023-10-09T15:57:08;8.63;;;4.10;;
3253;SDS011;1639;42.804;23.342;2023-10-09T15:59:35;7.87;;;3.37;;
3253;SDS011;1639;42.804;23.342;2023-10-09T16:02:00;8.23;;;2.97;;